createdAt,value
2022-10-29T00:09:39.092Z,16.80
2022-10-29T00:31:25.984Z,17.90
2022-10-29T00:53:11.969Z,17.30
2022-10-29T01:15:09.149Z,15.40
2022-10-29T01:36:59.482Z,17.10
2022-10-29T01:58:47.834Z,16.50
2022-10-29T02:20:33.722Z,22.50
2022-10-29T02:42:19.431Z,14.90
2022-10-29T03:04:05.326Z,19.10
2022-10-29T03:25:56.052Z,15.70
2022-10-29T03:47:42.474Z,18.10
2022-10-29T04:09:28.375Z,22.00
2022-10-29T04:31:15.200Z,14.70
2022-10-29T04:56:06.920Z,16.30
2022-10-29T05:17:52.850Z,16.10
2022-10-29T05:39:38.796Z,14.20
2022-10-29T06:01:24.552Z,16.20
2022-10-29T06:23:10.532Z,24.70
2022-10-29T06:44:56.202Z,16.70
2022-10-29T07:06:41.919Z,17.10
2022-10-29T07:28:27.740Z,18.10
2022-10-29T07:50:13.958Z,17.10
2022-10-29T08:11:59.771Z,16.50
2022-10-29T08:45:05.435Z,16.70
2022-10-29T09:07:02.804Z,18.60
2022-10-29T09:29:15.076Z,13.00
2022-10-29T09:51:10.712Z,13.50
2022-10-29T10:13:01.360Z,16.90
2022-10-29T10:34:44.322Z,16.30
2022-10-29T10:56:27.400Z,13.80
2022-10-29T11:18:18.361Z,14.30
2022-10-29T11:40:05.415Z,15.30
2022-10-29T12:01:57.618Z,13.40
2022-10-29T12:23:54.362Z,15.50
2022-10-29T12:46:19.079Z,15.50
2022-10-29T13:08:26.465Z,15.80
2022-10-29T13:30:21.182Z,17.30
2022-10-29T13:52:11.386Z,18.30
2022-10-29T14:13:58.746Z,18.20
2022-10-29T14:35:41.986Z,15.50
2022-10-29T14:57:27.920Z,15.70
2022-10-29T15:19:15.759Z,21.40
2022-10-29T15:41:30.748Z,15.40
2022-10-29T16:03:16.562Z,19.00
2022-10-29T16:24:59.581Z,19.90
2022-10-29T16:46:42.735Z,21.50
2022-10-29T17:26:03.566Z,25.90
2022-10-29T17:47:49.615Z,30.00
2022-10-29T18:09:35.501Z,26.20
2022-10-29T18:31:21.778Z,26.90
2022-10-29T18:53:07.614Z,27.30
2022-10-29T19:14:53.648Z,26.00
2022-10-29T19:36:40.731Z,25.20
2022-10-29T19:58:28.650Z,24.40
2022-10-29T20:20:17.304Z,21.60
2022-10-29T20:42:03.416Z,29.40
2022-10-29T21:03:51.471Z,36.90
2022-10-29T21:25:37.275Z,32.00
2022-10-29T21:47:22.962Z,33.90
2022-10-29T22:09:10.059Z,35.30
2022-10-29T22:31:01.914Z,36.20
2022-10-29T22:52:47.784Z,37.10
2022-10-29T23:14:33.460Z,31.50
2022-10-29T23:36:20.501Z,31.90
2022-10-29T23:58:06.493Z,31.30
